Time;durP1;ratioP1;P1;durP2;ratioP2;P2;SDS_P1;SDS_P2;PMS_P1;PMS_P2;Temp;Humidity;BMP_temperature;BMP_pressure;BME280_temperature;BME280_humidity;BME280_pressure;Samples;Min_cycle;Max_cycle;Signal;HPM_P1;HPM_P2
2021/07/12 00:01:45;;;;;;;13.27;10.30;;;21.20;95.40;;;;;;5060569;28;20035;-57
2021/07/12 00:04:11;;;;;;;12.00;10.80;;;21.20;95.50;;;;;;5093586;28;20367;-57
2021/07/12 00:06:37;;;;;;;10.73;9.63;;;21.20;95.50;;;;;;5091515;28;20089;-57
2021/07/12 00:09:04;;;;;;;11.40;9.70;;;21.10;95.50;;;;;;5072853;28;20040;-57
2021/07/12 00:11:31;;;;;;;11.35;9.27;;;21.10;95.50;;;;;;5093383;28;20024;-57
2021/07/12 00:13:58;;;;;;;11.45;8.88;;;21.00;95.70;;;;;;5060023;28;20044;-58
2021/07/12 00:16:24;;;;;;;12.60;9.90;;;21.00;95.70;;;;;;5065105;28;20128;-57
2021/07/12 00:18:50;;;;;;;11.07;9.27;;;21.00;95.70;;;;;;5091345;28;20020;-58
2021/07/12 00:21:16;;;;;;;11.63;10.05;;;21.00;95.80;;;;;;5088795;28;20065;-57
2021/07/12 00:23:43;;;;;;;12.73;10.07;;;21.00;95.70;;;;;;5090529;28;20036;-58
2021/07/12 00:26:09;;;;;;;12.55;9.88;;;21.00;95.80;;;;;;5073579;28;20073;-58
2021/07/12 00:28:35;;;;;;;10.73;9.63;;;21.10;95.80;;;;;;5092089;28;20040;-57
2021/07/12 00:31:01;;;;;;;11.93;9.10;;;21.00;95.60;;;;;;5090907;28;20062;-58
2021/07/12 00:33:27;;;;;;;9.95;9.05;;;21.00;95.70;;;;;;5089370;28;20055;-57
2021/07/12 00:35:59;;;;;;;11.05;9.15;;;21.00;95.50;;;;;;5091044;28;20024;-58
2021/07/12 00:38:25;;;;;;;9.80;8.80;;;21.00;95.60;;;;;;5088992;28;20031;-58
2021/07/12 00:40:50;;;;;;;11.68;9.15;;;21.00;95.50;;;;;;5092460;28;20040;-58
2021/07/12 00:43:16;;;;;;;10.20;8.73;;;21.10;95.40;;;;;;5092352;28;20032;-57
2021/07/12 00:45:42;;;;;;;9.75;8.73;;;21.20;95.50;;;;;;5023159;28;20032;-57
2021/07/12 00:48:08;;;;;;;9.32;8.48;;;21.20;95.30;;;;;;5088640;28;20016;-58
2021/07/12 00:50:37;;;;;;;9.50;8.50;;;21.20;95.50;;;;;;5089485;28;20063;-57
2021/07/12 00:53:04;;;;;;;9.35;7.50;;;21.20;95.40;;;;;;5089209;28;20386;-58
2021/07/12 00:55:40;;;;;;;9.27;8.15;;;21.20;95.50;;;;;;5090791;28;20054;-57
2021/07/12 00:58:08;;;;;;;9.77;8.23;;;21.10;95.70;;;;;;5087187;28;20055;-57
2021/07/12 01:00:35;;;;;;;10.77;8.48;;;21.10;96.10;;;;;;5093343;28;20028;-58
2021/07/12 01:03:01;;;;;;;11.02;7.85;;;21.00;96.10;;;;;;5095480;28;20360;-58
2021/07/12 01:05:29;;;;;;;9.30;7.85;;;21.00;96.40;;;;;;5091459;28;20487;-58
2021/07/12 01:07:56;;;;;;;10.85;7.60;;;21.00;96.30;;;;;;5092018;28;20032;-57
2021/07/12 01:10:22;;;;;;;9.68;7.88;;;20.90;96.20;;;;;;5066130;28;20040;-58
2021/07/12 01:13:18;;;;;;;8.80;7.65;;;21.00;96.40;;;;;;5077268;28;20386;-58
2021/07/12 01:16:10;;;;;;;9.27;7.95;;;20.90;96.40;;;;;;5095760;28;20077;-58
2021/07/12 01:19:14;;;;;;;9.27;7.68;;;20.90;96.50;;;;;;5018892;28;20128;-57
2021/07/12 01:22:11;;;;;;;9.32;7.95;;;20.80;96.80;;;;;;4990960;28;20046;-58
2021/07/12 01:25:13;;;;;;;9.88;8.30;;;20.80;97.00;;;;;;5016539;28;20168;-57
2021/07/12 01:28:19;;;;;;;11.82;8.63;;;20.70;97.20;;;;;;5020366;28;20033;-58
2021/07/12 01:31:03;;;;;;;13.23;8.65;;;20.70;97.50;;;;;;5021290;28;20484;-58
2021/07/12 01:33:36;;;;;;;9.93;8.98;;;20.60;97.80;;;;;;5021689;28;20112;-58
2021/07/12 01:36:16;;;;;;;10.27;8.95;;;20.50;97.90;;;;;;5019258;28;20037;-58
2021/07/12 01:38:55;;;;;;;11.13;9.10;;;20.50;98.30;;;;;;5014215;28;20057;-57
2021/07/12 01:41:39;;;;;;;10.02;9.02;;;20.50;98.70;;;;;;5024658;28;20068;-58
2021/07/12 01:44:13;;;;;;;9.93;9.02;;;20.40;98.80;;;;;;5014489;28;20044;-58
2021/07/12 01:46:44;;;;;;;11.85;9.35;;;20.30;99.20;;;;;;5013683;28;20029;-58
2021/07/12 01:49:29;;;;;;;10.48;9.45;;;20.20;99.50;;;;;;5021962;28;20086;-58
2021/07/12 01:52:15;;;;;;;11.68;9.52;;;20.20;99.80;;;;;;5018199;28;20030;-58
2021/07/12 01:55:11;;;;;;;10.93;9.63;;;20.20;99.90;;;;;;5024235;28;20065;-57
2021/07/12 01:57:57;;;;;;;11.73;9.70;;;20.30;99.90;;;;;;5091323;28;20109;-57
2021/07/12 02:00:23;;;;;;;11.20;10.07;;;20.20;99.90;;;;;;5094448;28;20032;-57
2021/07/12 02:02:54;;;;;;;11.73;10.45;;;20.20;99.90;;;;;;5092508;28;20020;-57
2021/07/12 02:05:24;;;;;;;11.88;10.60;;;20.10;99.90;;;;;;5090209;28;20035;-58
2021/07/12 02:07:50;;;;;;;11.90;10.30;;;20.10;99.90;;;;;;5094096;28;20375;-58
2021/07/12 02:10:20;;;;;;;12.88;11.27;;;20.00;99.90;;;;;;5073512;28;20039;-57
2021/07/12 02:12:50;;;;;;;14.23;10.90;;;20.00;99.90;;;;;;5091669;28;20376;-58
2021/07/12 02:15:16;;;;;;;12.70;11.40;;;20.00;99.90;;;;;;5092635;28;20043;-58
2021/07/12 02:17:43;;;;;;;12.52;11.27;;;19.90;99.90;;;;;;5090003;28;20421;-57
2021/07/12 02:20:10;;;;;;;12.40;11.15;;;20.00;99.90;;;;;;5076053;28;20478;-57
2021/07/12 02:22:38;;;;;;;13.63;11.50;;;20.00;99.90;;;;;;5078310;28;20043;-57
2021/07/12 02:25:06;;;;;;;14.30;10.65;;;20.00;99.90;;;;;;5085176;28;20024;-57
2021/07/12 02:27:33;;;;;;;12.85;11.40;;;20.00;99.90;;;;;;5071411;28;20071;-57
2021/07/12 02:30:00;;;;;;;12.57;11.23;;;20.00;99.90;;;;;;5080620;28;20131;-57
2021/07/12 02:32:27;;;;;;;14.18;11.27;;;20.00;99.90;;;;;;5075545;28;20048;-57
2021/07/12 02:34:54;;;;;;;12.60;10.98;;;20.10;99.90;;;;;;5093516;28;20545;-57
2021/07/12 02:37:20;;;;;;;12.60;10.75;;;20.10;99.90;;;;;;5093689;28;20467;-57
2021/07/12 02:39:48;;;;;;;12.05;10.82;;;20.10;99.90;;;;;;5093028;28;20076;-58
2021/07/12 02:42:14;;;;;;;12.32;10.15;;;20.20;99.90;;;;;;5092735;28;20028;-58
2021/07/12 02:44:45;;;;;;;11.10;10.00;;;20.10;99.90;;;;;;5075377;28;20126;-57
2021/07/12 02:47:11;;;;;;;13.13;9.52;;;20.10;99.90;;;;;;5085905;28;20030;-57
2021/07/12 02:49:37;;;;;;;10.35;9.10;;;20.20;99.90;;;;;;5093068;28;20119;-56
2021/07/12 02:52:14;;;;;;;9.30;8.27;;;20.30;99.70;;;;;;5060828;28;20093;-57
2021/07/12 02:54:42;;;;;;;11.07;8.82;;;20.30;99.40;;;;;;5091554;28;20475;-57
2021/07/12 02:57:08;;;;;;;10.80;8.27;;;20.30;99.20;;;;;;5092012;28;20040;-58
2021/07/12 02:59:34;;;;;;;9.95;8.95;;;20.30;99.20;;;;;;5047438;28;20042;-58
2021/07/12 03:02:00;;;;;;;9.50;8.45;;;20.40;99.10;;;;;;5064086;28;20032;-58
2021/07/12 03:04:26;;;;;;;11.43;8.65;;;20.40;99.10;;;;;;5059276;28;20047;-58
2021/07/12 03:06:55;;;;;;;9.93;8.93;;;20.40;99.10;;;;;;5046943;28;20072;-57
2021/07/12 03:09:31;;;;;;;12.95;8.98;;;20.30;99.10;;;;;;5092900;28;20103;-58
2021/07/12 03:12:02;;;;;;;10.65;9.55;;;20.30;99.10;;;;;;5041511;28;20095;-58
2021/07/12 03:14:49;;;;;;;11.48;9.60;;;20.40;99.10;;;;;;5085368;28;20024;-58
2021/07/12 03:17:16;;;;;;;10.20;9.18;;;20.40;99.00;;;;;;5089797;28;20078;-58
2021/07/12 03:19:45;;;;;;;10.23;9.02;;;20.40;98.80;;;;;;5093646;28;20032;-58
2021/07/12 03:22:12;;;;;;;10.70;9.43;;;20.40;98.80;;;;;;5090748;28;20224;-58
2021/07/12 03:24:40;;;;;;;10.80;9.70;;;20.40;98.80;;;;;;5090637;28;20063;-58
2021/07/12 03:27:09;;;;;;;12.02;9.80;;;20.40;98.90;;;;;;5090834;28;20032;-57
2021/07/12 03:29:39;;;;;;;12.50;10.10;;;20.40;99.10;;;;;;5090844;28;20032;-58
2021/07/12 03:32:08;;;;;;;13.15;10.73;;;20.40;99.10;;;;;;5071970;28;20093;-57
2021/07/12 03:34:34;;;;;;;10.90;9.82;;;20.40;99.10;;;;;;5050697;28;20036;-57
2021/07/12 03:37:01;;;;;;;13.25;11.05;;;20.40;98.90;;;;;;5092246;28;20356;-57
2021/07/12 03:39:31;;;;;;;11.38;10.02;;;20.40;99.00;;;;;;5091356;28;20356;-58
2021/07/12 03:41:58;;;;;;;12.38;10.95;;;20.40;99.00;;;;;;5040632;28;20053;-58
2021/07/12 03:44:24;;;;;;;12.35;11.07;;;20.50;99.00;;;;;;4994607;28;20050;-58
2021/07/12 03:46:50;;;;;;;13.75;10.57;;;20.50;99.00;;;;;;4995239;28;20081;-58
2021/07/12 03:49:18;;;;;;;12.23;10.07;;;20.50;99.00;;;;;;4996559;28;20034;-58
2021/07/12 03:51:47;;;;;;;10.95;9.85;;;20.60;98.90;;;;;;4994921;28;20443;-58
2021/07/12 03:54:17;;;;;;;12.00;10.80;;;20.70;98.60;;;;;;4997472;28;20125;-57
2021/07/12 03:56:43;;;;;;;12.90;10.48;;;20.70;98.40;;;;;;4990576;28;20109;-58
2021/07/12 03:59:09;;;;;;;13.05;10.02;;;20.80;98.40;;;;;;4996307;28;20125;-58
2021/07/12 04:01:35;;;;;;;15.32;10.88;;;20.90;98.30;;;;;;4996109;28;20043;-58
2021/07/12 04:04:00;;;;;;;11.02;9.80;;;20.90;98.20;;;;;;4989482;28;20035;-57
2021/07/12 04:06:29;;;;;;;12.32;9.95;;;20.90;98.30;;;;;;4959352;28;20069;-57
2021/07/12 04:08:55;;;;;;;14.35;9.73;;;20.90;98.20;;;;;;4989443;28;20038;-57
2021/07/12 04:11:28;;;;;;;11.20;9.98;;;21.00;98.10;;;;;;4975354;28;20031;-57
2021/07/12 04:13:54;;;;;;;11.90;10.60;;;21.10;98.20;;;;;;5045507;28;20045;-58
2021/07/12 04:16:20;;;;;;;10.90;9.80;;;21.10;98.20;;;;;;5029568;28;20037;-57
2021/07/12 04:18:46;;;;;;;11.45;9.68;;;21.10;98.10;;;;;;5091420;28;20032;-57
2021/07/12 04:21:14;;;;;;;12.07;10.88;;;21.20;98.30;;;;;;5059078;28;20088;-57
2021/07/12 04:23:40;;;;;;;12.52;10.70;;;21.20;98.10;;;;;;5077816;28;20147;-58
2021/07/12 04:26:06;;;;;;;11.75;10.63;;;21.30;97.90;;;;;;5090961;28;20189;-57
2021/07/12 04:28:32;;;;;;;10.50;9.43;;;21.30;97.80;;;;;;5087996;28;20032;-58
2021/07/12 04:30:58;;;;;;;14.05;10.90;;;21.30;97.80;;;;;;5043898;28;20044;-58
2021/07/12 04:33:25;;;;;;;11.02;9.93;;;21.40;97.70;;;;;;5055913;28;20044;-57
2021/07/12 04:35:52;;;;;;;11.57;10.43;;;21.40;97.80;;;;;;5089394;28;20032;-58
2021/07/12 04:38:17;;;;;;;12.48;11.25;;;21.50;97.60;;;;;;5045295;28;20047;-56
2021/07/12 04:40:43;;;;;;;13.85;11.50;;;21.30;97.80;;;;;;5088599;28;20024;-58
2021/07/12 04:43:09;;;;;;;12.02;10.45;;;21.40;98.00;;;;;;5018200;28;20048;-58
2021/07/12 04:45:35;;;;;;;12.80;11.50;;;21.50;97.90;;;;;;5072851;28;20379;-57
2021/07/12 04:48:01;;;;;;;12.55;11.05;;;21.40;97.90;;;;;;5052098;28;20036;-58
2021/07/12 04:50:26;;;;;;;12.95;11.65;;;21.50;97.70;;;;;;5045482;28;20044;-57
2021/07/12 04:52:52;;;;;;;12.07;10.77;;;21.50;97.70;;;;;;5081521;28;20110;-58
2021/07/12 04:55:18;;;;;;;13.02;11.63;;;21.60;97.70;;;;;;5080898;28;20463;-57
2021/07/12 04:57:45;;;;;;;13.60;11.38;;;21.50;97.80;;;;;;5084864;28;20048;-56
2021/07/12 05:00:11;;;;;;;14.55;11.68;;;21.50;97.80;;;;;;5066452;28;20046;-57
2021/07/12 05:02:38;;;;;;;13.40;12.05;;;21.40;98.00;;;;;;5024566;28;20039;-57
2021/07/12 05:05:09;;;;;;;13.73;12.40;;;21.40;98.00;;;;;;5081405;28;20459;-57
2021/07/12 05:07:34;;;;;;;12.82;10.70;;;21.40;98.10;;;;;;5074346;28;20661;-57
2021/07/12 05:10:00;;;;;;;14.70;11.98;;;21.50;98.00;;;;;;5047682;28;20044;-57
2021/07/12 05:12:26;;;;;;;16.50;12.10;;;21.40;98.20;;;;;;5059206;28;20123;-57
2021/07/12 05:14:52;;;;;;;15.07;12.00;;;21.40;98.40;;;;;;5072113;28;20024;-58
2021/07/12 05:17:18;;;;;;;14.32;12.27;;;21.40;98.30;;;;;;5031077;28;20076;-58
2021/07/12 05:19:43;;;;;;;15.48;12.88;;;21.40;98.30;;;;;;4994316;28;20060;-57
2021/07/12 05:22:09;;;;;;;13.85;12.20;;;21.30;98.30;;;;;;5008889;28;20087;-57
2021/07/12 05:24:35;;;;;;;13.70;11.70;;;21.30;98.50;;;;;;5008112;28;20046;-58
2021/07/12 05:27:01;;;;;;;16.92;12.02;;;21.40;98.70;;;;;;4998781;28;20053;-58
2021/07/12 05:29:27;;;;;;;13.07;11.77;;;21.30;98.40;;;;;;4995456;28;20048;-56
2021/07/12 05:31:52;;;;;;;13.40;11.65;;;21.40;98.40;;;;;;4973193;28;20037;-58
2021/07/12 05:34:19;;;;;;;14.23;12.13;;;21.40;98.40;;;;;;5009390;28;20029;-57
2021/07/12 05:36:45;;;;;;;12.93;11.60;;;21.40;98.50;;;;;;4994220;28;20228;-57
2021/07/12 05:39:15;;;;;;;13.55;12.20;;;21.40;98.40;;;;;;5002047;28;20072;-57
2021/07/12 05:41:41;;;;;;;15.23;12.73;;;21.40;98.30;;;;;;5030808;28;20100;-56
2021/07/12 05:44:06;;;;;;;13.15;11.85;;;21.60;98.30;;;;;;5032164;28;20046;-58
2021/07/12 05:46:32;;;;;;;13.00;11.50;;;21.50;98.40;;;;;;4996162;28;20041;-57
2021/07/12 05:48:58;;;;;;;13.98;11.65;;;21.60;98.40;;;;;;5067643;28;20040;-57
2021/07/12 05:51:24;;;;;;;17.27;12.07;;;21.70;98.40;;;;;;5074992;28;20414;-58
2021/07/12 05:53:50;;;;;;;12.93;11.63;;;21.80;98.00;;;;;;5031612;28;20032;-57
2021/07/12 05:56:16;;;;;;;12.98;10.77;;;22.00;97.90;;;;;;5073790;28;20048;-58
2021/07/12 05:58:43;;;;;;;11.50;10.30;;;22.10;97.50;;;;;;5006550;28;20510;-57
2021/07/12 06:01:09;;;;;;;11.05;9.95;;;22.30;97.20;;;;;;5076759;28;20021;-59
2021/07/12 06:03:35;;;;;;;11.20;10.00;;;22.40;96.90;;;;;;5061040;28;20109;-58
2021/07/12 06:06:00;;;;;;;10.85;9.80;;;22.40;96.70;;;;;;5050609;28;20032;-57
2021/07/12 06:08:26;;;;;;;12.35;9.65;;;22.50;96.90;;;;;;5048663;28;20097;-58
2021/07/12 06:10:52;;;;;;;11.93;9.07;;;22.50;96.60;;;;;;5076779;28;20033;-58
2021/07/12 06:13:18;;;;;;;11.73;9.23;;;22.50;96.20;;;;;;5080752;28;20028;-57
2021/07/12 06:15:44;;;;;;;11.32;9.55;;;22.60;96.10;;;;;;5082264;28;20471;-58
2021/07/12 06:18:14;;;;;;;11.13;10.02;;;22.60;96.10;;;;;;5044046;28;20043;-58
2021/07/12 06:20:41;;;;;;;10.30;9.30;;;22.70;96.30;;;;;;5080686;28;20034;-55
2021/07/12 06:23:07;;;;;;;11.77;10.35;;;22.90;96.10;;;;;;5079907;28;20132;-64
2021/07/12 06:25:32;;;;;;;11.65;10.07;;;23.00;95.60;;;;;;5082204;28;20111;-57
2021/07/12 06:27:58;;;;;;;13.95;9.25;;;23.00;96.00;;;;;;5063725;28;20109;-53
2021/07/12 06:30:24;;;;;;;11.20;9.13;;;23.30;96.00;;;;;;5047227;28;20436;-56
2021/07/12 06:32:50;;;;;;;10.90;9.75;;;23.50;95.40;;;;;;5074942;28;20077;-56
2021/07/12 06:35:15;;;;;;;10.43;9.02;;;23.40;95.40;;;;;;5016428;28;20072;-56
2021/07/12 06:37:41;;;;;;;13.13;9.23;;;23.60;95.30;;;;;;5074788;28;20472;-56
2021/07/12 06:40:08;;;;;;;12.32;8.95;;;23.60;95.20;;;;;;5056649;28;20108;-54
2021/07/12 06:42:34;;;;;;;11.13;8.95;;;23.80;94.80;;;;;;5083262;28;20025;-57
2021/07/12 06:45:00;;;;;;;11.00;8.40;;;23.90;94.30;;;;;;5079189;28;20024;-56
2021/07/12 06:47:27;;;;;;;9.15;8.10;;;23.90;94.30;;;;;;5062389;28;20495;-58
2021/07/12 06:49:54;;;;;;;9.25;8.23;;;24.00;94.40;;;;;;5083178;28;20409;-55
2021/07/12 06:52:20;;;;;;;16.33;8.63;;;24.20;94.20;;;;;;5084450;28;20525;-56
2021/07/12 06:54:47;;;;;;;11.55;8.15;;;24.30;93.60;;;;;;5050089;28;20040;-55
2021/07/12 06:57:13;;;;;;;10.70;7.95;;;24.30;93.20;;;;;;5025843;28;20055;-55
2021/07/12 06:59:40;;;;;;;11.63;8.73;;;24.50;93.60;;;;;;5077663;28;20036;-57
2021/07/12 07:02:06;;;;;;;13.77;7.32;;;24.50;93.40;;;;;;5073859;28;20032;-57
2021/07/12 07:04:32;;;;;;;11.88;7.80;;;24.50;92.30;;;;;;5086204;28;20073;-54
2021/07/12 07:06:58;;;;;;;11.57;8.05;;;24.50;93.50;;;;;;5077751;28;20032;-58
2021/07/12 07:09:25;;;;;;;8.98;8.07;;;24.50;92.60;;;;;;5056625;28;20033;-54
2021/07/12 07:11:51;;;;;;;9.25;8.18;;;24.50;93.60;;;;;;5077642;28;20029;-53
2021/07/12 07:14:17;;;;;;;11.68;8.23;;;24.50;93.00;;;;;;5085240;28;20032;-57
2021/07/12 07:16:43;;;;;;;10.15;8.25;;;24.80;93.00;;;;;;5083183;28;20028;-56
2021/07/12 07:19:10;;;;;;;11.38;8.18;;;24.80;92.70;;;;;;5063156;28;20063;-54
2021/07/12 07:21:36;;;;;;;12.25;7.75;;;24.90;92.30;;;;;;5083186;28;20066;-54
2021/07/12 07:24:02;;;;;;;9.73;8.25;;;25.00;92.00;;;;;;5082322;28;20499;-55
2021/07/12 07:26:27;;;;;;;12.00;7.88;;;25.20;92.00;;;;;;5083115;28;20035;-56
2021/07/12 07:28:55;;;;;;;11.10;7.68;;;25.30;92.20;;;;;;5085414;28;20031;-54
2021/07/12 07:31:21;;;;;;;12.10;9.07;;;25.10;91.70;;;;;;5083974;28;20032;-57
2021/07/12 07:33:47;;;;;;;9.50;7.53;;;25.30;91.70;;;;;;5085509;28;20028;-55
2021/07/12 07:36:13;;;;;;;10.40;8.77;;;25.20;91.40;;;;;;5036559;28;20395;-55
2021/07/12 07:38:39;;;;;;;9.70;7.93;;;25.20;92.10;;;;;;5076116;28;20441;-54
2021/07/12 07:41:05;;;;;;;11.48;7.82;;;25.30;91.50;;;;;;5053302;28;20051;-57
2021/07/12 07:43:31;;;;;;;8.82;7.57;;;25.70;90.80;;;;;;5075861;28;20090;-54
2021/07/12 07:45:56;;;;;;;10.93;8.20;;;25.80;91.40;;;;;;5076276;28;20028;-55
2021/07/12 07:48:22;;;;;;;9.52;7.70;;;25.70;91.60;;;;;;5076796;28;20040;-55
2021/07/12 07:50:48;;;;;;;10.52;7.85;;;25.80;90.80;;;;;;5076943;28;20060;-56
2021/07/12 07:53:15;;;;;;;9.43;8.23;;;25.80;90.90;;;;;;5056653;28;20119;-54
2021/07/12 07:55:40;;;;;;;12.40;7.75;;;25.70;90.60;;;;;;5073423;28;20029;-55
2021/07/12 07:58:06;;;;;;;8.77;7.88;;;25.90;90.90;;;;;;5058715;28;20097;-55
2021/07/12 08:00:32;;;;;;;10.98;8.20;;;25.80;90.70;;;;;;5041421;28;20411;-57
2021/07/12 08:02:58;;;;;;;13.82;8.45;;;26.30;90.40;;;;;;5073840;28;20115;-54
2021/07/12 08:05:24;;;;;;;9.82;8.05;;;26.80;90.60;;;;;;5072773;28;20478;-56
2021/07/12 08:07:50;;;;;;;9.25;7.63;;;26.70;89.30;;;;;;5046652;28;20452;-57
2021/07/12 08:10:18;;;;;;;11.15;8.02;;;26.40;89.20;;;;;;5084729;28;20123;-57
2021/07/12 08:12:44;;;;;;;11.57;7.70;;;26.50;90.00;;;;;;5076011;28;20028;-58
2021/07/12 08:15:11;;;;;;;8.35;7.22;;;26.70;88.30;;;;;;5080570;28;20384;-56
2021/07/12 08:17:37;;;;;;;8.35;7.25;;;26.70;90.00;;;;;;5078679;28;20028;-57
2021/07/12 08:20:05;;;;;;;9.80;7.70;;;27.00;87.30;;;;;;5061486;28;20043;-55
2021/07/12 08:22:33;;;;;;;10.50;7.63;;;27.00;90.60;;;;;;5080441;28;20024;-55
2021/07/12 08:25:02;;;;;;;13.48;8.93;;;27.10;88.00;;;;;;5079896;28;20497;-57
2021/07/12 08:27:28;;;;;;;10.38;9.15;;;27.00;88.40;;;;;;5081227;28;20036;-56
2021/07/12 08:29:54;;;;;;;8.82;7.45;;;;;;;;;;5066832;28;20089;-57
2021/07/12 08:32:21;;;;;;;11.80;7.72;;;;;;;;;;5074735;28;20070;-57
2021/07/12 08:34:47;;;;;;;12.57;8.00;;;27.60;87.20;;;;;;5072655;28;20077;-56
2021/07/12 08:37:13;;;;;;;9.70;7.35;;;27.80;90.30;;;;;;5074063;28;20089;-56
2021/07/12 08:39:39;;;;;;;9.30;7.75;;;28.20;84.60;;;;;;5073663;28;20039;-55
2021/07/12 08:42:06;;;;;;;12.98;7.90;;;29.10;82.30;;;;;;5080084;28;20056;-57
2021/07/12 08:44:32;;;;;;;10.90;7.60;;;29.00;81.80;;;;;;5078436;28;20094;-57
2021/07/12 08:46:58;;;;;;;9.20;6.93;;;29.60;81.10;;;;;;5078118;28;20020;-58
2021/07/12 08:49:25;;;;;;;15.63;9.38;;;;;;;;;;5077351;28;20032;-58
2021/07/12 08:51:51;;;;;;;12.38;9.13;;;;;;;;;;5076769;28;20021;-55
2021/07/12 08:54:17;;;;;;;18.15;8.40;;;30.70;98.50;;;;;;5075054;28;20048;-57
2021/07/12 08:56:43;;;;;;;10.13;6.65;;;;;;;;;;5061741;28;20043;-60
2021/07/12 08:59:29;;;;;;;8.70;7.40;;;;;;;;;;5079298;28;20108;-60
2021/07/12 09:02:19;;;;;;;7.43;6.68;;;32.70;94.10;;;;;;5077505;28;20429;-57
2021/07/12 09:04:47;;;;;;;11.13;6.72;;;33.70;70.60;;;;;;4999863;28;20050;-60
2021/07/12 09:07:22;;;;;;;8.70;6.78;;;34.10;69.30;;;;;;4999025;28;20092;-57
2021/07/12 09:10:04;;;;;;;10.10;6.55;;;35.10;68.20;;;;;;4964056;28;20158;-59
2021/07/12 09:12:49;;;;;;;10.80;7.38;;;34.00;68.50;;;;;;4996179;28;20034;-57
2021/07/12 09:15:21;;;;;;;10.30;6.75;;;35.30;67.80;;;;;;4993422;28;20038;-59
2021/07/12 09:17:54;;;;;;;9.52;6.47;;;34.60;68.40;;;;;;4995747;28;20474;-57
2021/07/12 09:20:37;;;;;;;9.57;6.78;;;35.40;69.60;;;;;;5003900;28;20038;-59
2021/07/12 09:23:21;;;;;;;6.88;6.10;;;36.10;70.30;;;;;;4996745;28;20056;-56
2021/07/12 09:26:03;;;;;;;11.00;6.85;;;33.10;67.00;;;;;;4994081;28;20038;-57
2021/07/12 09:28:51;;;;;;;9.80;7.25;;;33.80;67.60;;;;;;4994475;28;20038;-56
2021/07/12 09:31:32;;;;;;;10.05;7.18;;;34.00;67.50;;;;;;4997638;28;20126;-57
2021/07/12 09:34:02;;;;;;;7.47;6.63;;;33.60;68.30;;;;;;4995634;28;20049;-57
2021/07/12 09:36:31;;;;;;;7.28;6.57;;;33.90;78.40;;;;;;4995654;28;20088;-56
2021/07/12 09:38:57;;;;;;;8.75;7.10;;;34.40;65.80;;;;;;4957899;28;20034;-56
2021/07/12 09:41:29;;;;;;;7.65;6.80;;;35.00;64.60;;;;;;5022985;28;20037;-57
2021/07/12 09:44:02;;;;;;;9.02;6.80;;;35.40;66.00;;;;;;5075823;28;20037;-55
2021/07/12 09:46:32;;;;;;;7.70;6.90;;;36.20;62.10;;;;;;5078018;28;20082;-58
2021/07/12 09:49:24;;;;;;;7.70;6.90;;;38.10;59.70;;;;;;5040106;28;20048;-56
2021/07/12 09:51:58;;;;;;;10.98;7.15;;;37.40;60.50;;;;;;5034591;28;20036;-58
2021/07/12 09:54:35;;;;;;;8.52;6.40;;;38.40;59.20;;;;;;5079188;28;20552;-60
2021/07/12 09:57:04;;;;;;;6.45;5.85;;;38.00;58.00;;;;;;5075158;28;20083;-58
2021/07/12 09:59:30;;;;;;;8.63;6.10;;;39.00;57.10;;;;;;5072428;28;20475;-64
2021/07/12 10:01:56;;;;;;;7.40;6.63;;;38.90;56.80;;;;;;5080223;28;20048;-60
2021/07/12 10:04:24;;;;;;;7.85;5.93;;;38.00;56.60;;;;;;5029369;28;20053;-61
2021/07/12 10:06:51;;;;;;;6.95;6.00;;;38.90;57.50;;;;;;5017544;28;20041;-62
2021/07/12 10:09:22;;;;;;;7.88;6.93;;;41.00;55.50;;;;;;5010247;28;20034;-61
2021/07/12 10:11:52;;;;;;;8.73;6.80;;;;;;;;;;5030015;28;20045;-60
2021/07/12 10:14:21;;;;;;;6.60;6.00;;;37.80;55.60;;;;;;5037244;28;21574;-59
2021/07/12 10:16:49;;;;;;;10.35;7.32;;;39.60;54.30;;;;;;5032996;28;20040;-59
2021/07/12 10:19:15;;;;;;;6.97;6.15;;;39.30;54.70;;;;;;5030141;28;20488;-61
2021/07/12 10:21:47;;;;;;;8.00;7.15;;;;;;;;;;5007549;28;20060;-60
2021/07/12 10:24:14;;;;;;;7.65;6.20;;;39.80;52.70;;;;;;5036862;28;20454;-59
2021/07/12 10:26:46;;;;;;;7.90;6.68;;;;;;;;;;5028011;28;20052;-60
2021/07/12 10:29:13;;;;;;;7.50;6.20;;;;;;;;;;5031467;28;20041;-60
2021/07/12 10:31:58;;;;;;;6.90;5.78;;;;;;;;;;5040415;28;20037;-61
2021/07/12 10:34:43;;;;;;;7.68;6.85;;;;;;;;;;5036632;28;20116;-61
2021/07/12 10:37:17;;;;;;;7.82;5.82;;;;;;;;;;5064865;28;20036;-61
2021/07/12 10:39:59;;;;;;;8.20;7.40;;;;;;;;;;5077906;28;20032;-61
2021/07/12 10:42:50;;;;;;;12.75;6.35;;;;;;;;;;5075510;28;20048;-60
2021/07/12 10:45:16;;;;;;;10.55;6.50;;;;;;;;;;5078679;28;20482;-59
2021/07/12 10:47:46;;;;;;;8.68;6.05;;;43.30;68.70;;;;;;5079930;28;20032;-59
2021/07/12 10:50:31;;;;;;;12.25;7.43;;;;;;;;;;5076831;28;20111;-59
2021/07/12 10:52:57;;;;;;;10.57;6.32;;;41.30;50.20;;;;;;5073946;28;20347;-59
2021/07/12 10:55:34;;;;;;;6.93;6.22;;;40.60;54.20;;;;;;5081096;28;20025;-58
2021/07/12 10:58:18;;;;;;;7.80;6.30;;;39.60;51.10;;;;;;5079855;28;20079;-59
2021/07/12 11:00:46;;;;;;;7.57;6.00;;;40.90;51.20;;;;;;5077989;28;20637;-59
2021/07/12 11:03:33;;;;;;;8.85;6.28;;;43.00;54.10;;;;;;5080670;28;20051;-59
2021/07/12 11:05:59;;;;;;;7.47;6.60;;;41.60;50.90;;;;;;5079852;28;20043;-60
2021/07/12 11:08:44;;;;;;;8.77;6.20;;;41.50;50.40;;;;;;5075829;28;20093;-61
2021/07/12 11:11:12;;;;;;;9.45;6.05;;;43.90;49.00;;;;;;5076122;28;20033;-60
2021/07/12 11:14:02;;;;;;;8.25;6.35;;;43.90;47.60;;;;;;5086181;28;20036;-59
2021/07/12 11:16:41;;;;;;;6.88;6.18;;;43.90;47.80;;;;;;5075496;28;20105;-59
2021/07/12 11:19:24;;;;;;;6.53;5.93;;;41.40;49.70;;;;;;5073559;28;20174;-61
2021/07/12 11:21:50;;;;;;;7.57;6.20;;;42.70;48.70;;;;;;5085705;28;20505;-59
2021/07/12 11:24:22;;;;;;;8.52;6.10;;;43.60;46.00;;;;;;5084095;28;20067;-59
2021/07/12 11:26:56;;;;;;;7.32;6.38;;;44.70;46.30;;;;;;5078527;28;20111;-60
2021/07/12 11:29:33;;;;;;;7.40;5.97;;;44.30;44.60;;;;;;5078686;28;20238;-59
2021/07/12 11:32:02;;;;;;;5.93;5.35;;;;;;;;;;5078378;28;20391;-59
2021/07/12 11:34:29;;;;;;;8.00;5.68;;;47.00;44.00;;;;;;5085049;28;20044;-60
2021/07/12 11:36:59;;;;;;;8.07;5.40;;;43.90;44.50;;;;;;5078343;28;20039;-60
2021/07/12 11:39:27;;;;;;;8.77;5.70;;;;;;;;;;5078119;28;20035;-60
2021/07/12 11:41:54;;;;;;;19.13;7.32;;;;;;;;;;5084977;28;20036;-59
2021/07/12 11:44:20;;;;;;;141.60;32.78;;;;;;;;;;5077822;28;20040;-60
2021/07/12 11:46:46;;;;;;;59.38;18.73;;;52.00;64.90;;;;;;5085022;28;20025;-60
2021/07/12 11:49:18;;;;;;;6.40;5.80;;;53.40;53.90;;;;;;5061424;28;20055;-60
2021/07/12 11:51:44;;;;;;;8.45;6.57;;;54.00;59.30;;;;;;5071157;28;20106;-59
2021/07/12 11:54:14;;;;;;;9.43;6.47;;;50.20;55.50;;;;;;5074901;28;20048;-60
2021/07/12 11:56:41;;;;;;;7.88;6.35;;;46.70;43.00;;;;;;5080927;28;20416;-60
2021/07/12 11:59:07;;;;;;;8.20;6.40;;;;;;;;;;5076271;28;20028;-59
2021/07/12 12:01:33;;;;;;;8.10;6.75;;;;;;;;;;5084616;28;20039;-60
2021/07/12 12:04:03;;;;;;;8.32;6.75;;;;;;;;;;5076826;28;20400;-60
2021/07/12 12:06:30;;;;;;;6.67;5.97;;;;;;;;;;5048166;28;20064;-60
2021/07/12 12:08:57;;;;;;;6.78;6.07;;;49.70;41.50;;;;;;5076975;28;20378;-61
2021/07/12 12:11:31;;;;;;;8.50;5.72;;;49.20;42.50;;;;;;5073730;28;20035;-61
2021/07/12 12:13:57;;;;;;;6.80;6.10;;;48.60;41.70;;;;;;5076630;28;20032;-60
2021/07/12 12:16:30;;;;;;;32.88;13.43;;;49.60;42.90;;;;;;5075600;28;20037;-61
2021/07/12 12:19:16;;;;;;;7.65;6.10;;;50.40;42.10;;;;;;5074865;28;20664;-60
2021/07/12 12:21:41;;;;;;;7.20;6.50;;;47.20;41.40;;;;;;5026567;28;20073;-62
2021/07/12 12:24:11;;;;;;;7.90;7.03;;;44.50;44.80;;;;;;4998530;28;20085;-64
2021/07/12 12:26:36;;;;;;;10.05;7.28;;;45.90;50.40;;;;;;4996734;28;20042;-60
2021/07/12 12:29:06;;;;;;;7.65;6.25;;;44.70;49.20;;;;;;4992371;28;20048;-57
2021/07/12 12:31:32;;;;;;;6.82;6.13;;;47.00;44.00;;;;;;5028151;28;20124;-63
2021/07/12 12:34:01;;;;;;;10.35;6.88;;;49.10;42.60;;;;;;5039071;28;20021;-61
2021/07/12 12:36:31;;;;;;;7.43;6.30;;;;;;;;;;5024457;28;20115;-59
2021/07/12 12:39:13;;;;;;;7.30;6.60;;;50.00;43.30;;;;;;5025231;28;20079;-62
2021/07/12 12:41:51;;;;;;;7.30;6.60;;;50.80;41.80;;;;;;5029601;28;20451;-61
2021/07/12 12:44:18;;;;;;;7.28;6.57;;;50.60;42.00;;;;;;5009703;28;20460;-61
2021/07/12 12:46:57;;;;;;;8.23;6.32;;;51.10;41.60;;;;;;5031007;28;20053;-62
2021/07/12 12:49:30;;;;;;;7.68;6.95;;;51.20;40.50;;;;;;5025938;28;20024;-62
2021/07/12 12:52:05;;;;;;;9.98;6.45;;;51.20;49.40;;;;;;5038328;28;20048;-61
2021/07/12 12:54:36;;;;;;;8.05;6.10;;;51.90;48.10;;;;;;5081024;28;20087;-61
2021/07/12 12:57:04;;;;;;;8.77;6.93;;;48.50;56.10;;;;;;5047689;28;20060;-62
2021/07/12 12:59:30;;;;;;;8.70;6.00;;;;;;;;;;5017390;28;20099;-60